createdAt,value
2017-11-26T00:00:34.333Z,5.22
2017-11-26T00:01:36.209Z,5.25
2017-11-26T00:02:38.090Z,5.22
2017-11-26T00:03:39.963Z,5.33
2017-11-26T00:04:41.779Z,5.35
2017-11-26T00:05:43.594Z,5.36
2017-11-26T00:06:45.478Z,5.30
2017-11-26T00:07:47.361Z,5.27
2017-11-26T00:08:49.234Z,5.20
2017-11-26T00:10:03.382Z,5.10
2017-11-26T00:11:05.258Z,5.15
2017-11-26T00:12:07.136Z,5.04
2017-11-26T00:13:09.015Z,5.03
2017-11-26T00:14:10.831Z,4.92
2017-11-26T00:15:12.649Z,4.84
2017-11-26T00:16:14.540Z,4.69
2017-11-26T00:17:16.433Z,4.75
2017-11-26T00:18:18.284Z,4.67
2017-11-26T00:19:32.433Z,4.86
2017-11-26T00:20:34.308Z,4.84
2017-11-26T00:21:36.200Z,4.78
2017-11-26T00:22:38.077Z,4.69
2017-11-26T00:23:39.893Z,4.66
2017-11-26T00:24:41.709Z,4.47
2017-11-26T00:25:43.593Z,4.58
2017-11-26T00:26:45.472Z,4.51
2017-11-26T00:27:47.378Z,4.44
2017-11-26T00:29:01.500Z,4.41
2017-11-26T00:30:03.382Z,4.42
2017-11-26T00:31:05.256Z,4.30
2017-11-26T00:32:07.146Z,4.27
2017-11-26T00:33:08.964Z,4.29
2017-11-26T00:34:10.779Z,4.29
2017-11-26T00:35:12.657Z,4.40
2017-11-26T00:36:14.534Z,4.44
2017-11-26T00:37:16.410Z,4.51
2017-11-26T00:38:30.559Z,4.63
2017-11-26T00:39:32.433Z,4.55
2017-11-26T00:40:34.310Z,4.54
2017-11-26T00:41:36.185Z,4.40
2017-11-26T00:42:37.999Z,4.42
2017-11-26T00:43:39.821Z,4.41
2017-11-26T00:44:41.697Z,4.27
2017-11-26T00:45:43.573Z,4.30
2017-11-26T00:46:45.450Z,4.30
2017-11-26T00:47:59.597Z,4.27
2017-11-26T00:49:01.479Z,4.27
2017-11-26T00:50:03.352Z,4.24
2017-11-26T00:51:05.225Z,4.32
2017-11-26T00:52:07.039Z,4.34
2017-11-26T00:53:08.853Z,4.40
2017-11-26T00:54:10.729Z,4.42
2017-11-26T00:55:12.608Z,4.51
2017-11-26T00:56:14.483Z,4.62
2017-11-26T00:57:28.633Z,4.70
2017-11-26T00:58:30.514Z,4.69
2017-11-26T00:59:32.389Z,4.82
2017-11-26T01:00:34.265Z,4.86
2017-11-26T01:01:36.081Z,4.97
2017-11-26T01:02:37.898Z,5.12
2017-11-26T01:03:39.779Z,5.12
2017-11-26T01:04:41.657Z,5.12
2017-11-26T01:05:43.535Z,5.27
2017-11-26T01:06:57.682Z,5.21
2017-11-26T01:07:59.558Z,5.20
2017-11-26T01:09:01.439Z,5.20
2017-11-26T01:10:03.313Z,5.07
2017-11-26T01:11:05.133Z,5.06
2017-11-26T01:12:06.949Z,4.94
2017-11-26T01:13:08.826Z,4.89
2017-11-26T01:14:10.704Z,4.85
2017-11-26T01:15:12.580Z,4.75
2017-11-26T01:16:26.777Z,4.72
2017-11-26T01:17:28.654Z,4.62
2017-11-26T01:18:30.530Z,4.60
2017-11-26T01:19:32.406Z,4.59
2017-11-26T01:20:34.223Z,4.67
2017-11-26T01:21:36.034Z,4.62
2017-11-26T01:22:37.922Z,4.51
2017-11-26T01:23:39.800Z,4.52
2017-11-26T01:24:41.676Z,4.51
2017-11-26T01:25:55.848Z,4.63
2017-11-26T01:26:57.702Z,4.59
2017-11-26T01:27:59.586Z,4.55
2017-11-26T01:29:01.464Z,4.66
2017-11-26T01:30:03.279Z,4.67
2017-11-26T01:31:05.093Z,4.62
2017-11-26T01:32:06.979Z,4.66
2017-11-26T01:33:08.854Z,4.63
2017-11-26T01:34:10.731Z,4.75
2017-11-26T01:35:24.878Z,4.72
2017-11-26T01:36:26.754Z,4.65
2017-11-26T01:37:28.632Z,4.60
2017-11-26T01:38:30.511Z,4.72
2017-11-26T01:39:32.327Z,4.72
2017-11-26T01:40:34.140Z,4.66
2017-11-26T01:41:36.022Z,4.65
2017-11-26T01:42:37.900Z,4.65
2017-11-26T01:43:39.776Z,4.50
2017-11-26T01:44:53.971Z,4.54
2017-11-26T01:45:55.850Z,4.62
2017-11-26T01:46:57.728Z,4.54
2017-11-26T01:47:59.608Z,4.51
2017-11-26T01:49:01.423Z,4.41
2017-11-26T01:50:03.240Z,4.36
2017-11-26T01:51:05.118Z,4.36
2017-11-26T01:52:06.996Z,4.34
2017-11-26T01:53:08.875Z,4.40
2017-11-26T01:54:23.025Z,4.34
2017-11-26T01:55:24.902Z,4.27
2017-11-26T01:56:26.785Z,4.20
2017-11-26T01:57:28.662Z,4.18
2017-11-26T01:58:30.477Z,4.27
2017-11-26T01:59:32.291Z,4.27
2017-11-26T02:00:34.171Z,4.20
2017-11-26T02:01:36.051Z,4.20
2017-11-26T02:02:37.929Z,4.20
2017-11-26T02:03:52.077Z,4.20
2017-11-26T02:04:53.954Z,4.04
2017-11-26T02:05:55.834Z,4.02
2017-11-26T02:06:57.710Z,4.06
2017-11-26T02:07:59.524Z,4.14
2017-11-26T02:09:01.342Z,4.20
2017-11-26T02:10:03.219Z,4.23
2017-11-26T02:11:05.097Z,4.18
2017-11-26T02:12:06.976Z,4.15
2017-11-26T02:13:21.988Z,4.08
2017-11-26T02:14:23.881Z,4.08
2017-11-26T02:15:25.745Z,4.04
2017-11-26T02:16:27.623Z,4.15
2017-11-26T02:17:29.437Z,4.00
2017-11-26T02:18:31.252Z,4.05
2017-11-26T02:19:33.133Z,4.08
2017-11-26T02:20:35.002Z,4.05
2017-11-26T02:21:36.881Z,4.09
2017-11-26T02:22:51.078Z,4.12
2017-11-26T02:23:52.953Z,4.16
2017-11-26T02:24:54.832Z,4.20
2017-11-26T02:25:56.716Z,4.22
2017-11-26T02:26:58.528Z,4.24
2017-11-26T02:28:00.337Z,4.22
2017-11-26T02:29:02.216Z,4.16
2017-11-26T02:30:04.093Z,4.12
2017-11-26T02:31:05.970Z,4.15
2017-11-26T02:32:20.117Z,4.20
2017-11-26T02:33:21.993Z,4.22
2017-11-26T02:34:23.869Z,4.09
2017-11-26T02:35:25.751Z,4.08
2017-11-26T02:36:27.560Z,4.15
2017-11-26T02:37:29.372Z,4.11
2017-11-26T02:38:31.249Z,4.06
2017-11-26T02:39:33.126Z,4.12
2017-11-26T02:40:35.017Z,4.11
2017-11-26T02:41:49.155Z,4.11
2017-11-26T02:42:51.024Z,4.06
2017-11-26T02:43:52.906Z,4.09
2017-11-26T02:44:54.779Z,4.16
2017-11-26T02:45:56.593Z,4.24
2017-11-26T02:46:58.403Z,4.18
2017-11-26T02:48:00.281Z,4.24
2017-11-26T02:49:02.159Z,4.37
2017-11-26T02:50:04.034Z,4.40
2017-11-26T02:51:18.181Z,4.33
2017-11-26T02:52:20.057Z,4.32
2017-11-26T02:53:21.937Z,4.50
2017-11-26T02:54:23.812Z,4.51
2017-11-26T02:55:25.623Z,4.55
2017-11-26T02:56:27.437Z,4.66
2017-11-26T02:57:29.327Z,4.69
2017-11-26T02:58:31.190Z,4.60
2017-11-26T02:59:33.067Z,4.66
2017-11-26T03:00:47.215Z,4.67
2017-11-26T03:01:49.089Z,4.54
2017-11-26T03:02:50.965Z,4.62
2017-11-26T03:03:52.848Z,4.59
2017-11-26T03:04:54.660Z,4.59
2017-11-26T03:05:56.470Z,4.62
2017-11-26T03:06:58.348Z,4.51
2017-11-26T03:08:00.228Z,4.62
2017-11-26T03:09:02.104Z,4.67
2017-11-26T03:10:16.250Z,4.66
2017-11-26T03:11:18.125Z,4.59
2017-11-26T03:12:20.011Z,4.62
2017-11-26T03:13:21.884Z,4.66
2017-11-26T03:14:23.698Z,4.75
2017-11-26T03:15:25.510Z,4.66
2017-11-26T03:16:27.393Z,4.62
2017-11-26T03:17:29.272Z,4.66
2017-11-26T03:18:31.151Z,4.67
2017-11-26T03:19:45.298Z,4.65
2017-11-26T03:20:47.174Z,4.67
2017-11-26T03:21:49.056Z,4.70
2017-11-26T03:22:50.934Z,4.78
2017-11-26T03:23:52.747Z,4.75
2017-11-26T03:24:54.563Z,4.70
2017-11-26T03:25:56.453Z,4.66
2017-11-26T03:26:58.320Z,4.58
2017-11-26T03:28:00.200Z,4.69
2017-11-26T03:29:14.353Z,4.63
2017-11-26T03:30:16.226Z,4.66
2017-11-26T03:31:18.103Z,4.67
2017-11-26T03:32:19.980Z,4.65
2017-11-26T03:33:21.797Z,4.66
2017-11-26T03:34:23.612Z,4.77
2017-11-26T03:35:25.489Z,4.85
2017-11-26T03:36:27.369Z,4.99
2017-11-26T03:37:29.247Z,5.09
2017-11-26T03:38:43.398Z,5.06
2017-11-26T03:39:45.282Z,5.10
2017-11-26T03:40:47.158Z,5.12
2017-11-26T03:41:49.039Z,5.06
2017-11-26T03:42:50.852Z,4.97
2017-11-26T03:43:52.661Z,5.00
2017-11-26T03:44:54.542Z,5.07
2017-11-26T03:45:56.420Z,5.09
2017-11-26T03:46:58.296Z,5.09
2017-11-26T03:48:12.444Z,5.03
2017-11-26T03:49:14.319Z,5.18
2017-11-26T03:50:16.200Z,5.15
2017-11-26T03:51:18.081Z,5.40
2017-11-26T03:52:19.893Z,5.30
2017-11-26T03:53:21.708Z,5.30
2017-11-26T03:54:23.588Z,5.33
2017-11-26T03:55:25.470Z,5.28
2017-11-26T03:56:27.365Z,5.27
2017-11-26T03:57:41.493Z,5.28
2017-11-26T03:58:43.371Z,5.28
2017-11-26T03:59:45.249Z,5.31
2017-11-26T04:00:47.132Z,5.38
2017-11-26T04:01:48.946Z,5.43
2017-11-26T04:02:50.758Z,5.48
2017-11-26T04:03:52.637Z,5.53
2017-11-26T04:04:54.516Z,5.51
2017-11-26T04:05:56.394Z,5.53
2017-11-26T04:07:10.545Z,5.33
2017-11-26T04:08:12.424Z,5.21
2017-11-26T04:09:14.301Z,5.15
2017-11-26T04:10:16.181Z,5.10
2017-11-26T04:11:17.993Z,5.04
2017-11-26T04:12:19.806Z,5.15
2017-11-26T04:13:21.686Z,5.02
2017-11-26T04:14:23.565Z,5.03
2017-11-26T04:15:25.444Z,4.99
2017-11-26T04:16:39.591Z,4.94
2017-11-26T04:17:41.467Z,4.80
2017-11-26T04:18:43.349Z,4.77
2017-11-26T04:19:45.221Z,4.70
2017-11-26T04:20:47.038Z,4.75
2017-11-26T04:21:48.850Z,4.80
2017-11-26T04:22:50.730Z,4.77
2017-11-26T04:23:52.606Z,4.85
2017-11-26T04:24:54.487Z,4.86
2017-11-26T04:26:08.683Z,4.88
2017-11-26T04:27:10.560Z,4.86
2017-11-26T04:28:12.438Z,4.82
2017-11-26T04:29:14.316Z,4.67
2017-11-26T04:30:16.133Z,4.66
2017-11-26T04:31:17.950Z,4.66
2017-11-26T04:32:19.828Z,4.69
2017-11-26T04:33:21.704Z,4.72
2017-11-26T04:34:23.582Z,4.85
2017-11-26T04:35:37.730Z,4.78
2017-11-26T04:36:39.612Z,4.75
2017-11-26T04:37:41.483Z,4.75
2017-11-26T04:38:43.362Z,4.73
2017-11-26T04:39:45.173Z,4.77
2017-11-26T04:40:46.988Z,4.88
2017-11-26T04:41:48.864Z,4.92
2017-11-26T04:42:50.739Z,4.94
2017-11-26T04:43:52.617Z,5.00
2017-11-26T04:45:06.764Z,5.03
2017-11-26T04:46:08.640Z,4.99
2017-11-26T04:47:10.519Z,4.94
2017-11-26T04:48:12.406Z,4.91
2017-11-26T04:49:14.213Z,4.77
2017-11-26T04:50:16.029Z,4.94
2017-11-26T04:51:17.904Z,5.00
2017-11-26T04:52:19.784Z,5.15
2017-11-26T04:53:21.661Z,5.18
2017-11-26T04:54:35.810Z,5.09
2017-11-26T04:55:37.684Z,5.30
2017-11-26T04:56:39.561Z,5.25
2017-11-26T04:57:41.447Z,5.48
2017-11-26T04:58:43.252Z,5.49
2017-11-26T04:59:45.063Z,5.49
2017-11-26T05:00:46.944Z,5.51
2017-11-26T05:01:48.820Z,5.67
2017-11-26T05:02:50.700Z,5.67
2017-11-26T05:04:04.895Z,5.74
2017-11-26T05:05:06.774Z,5.76
2017-11-26T05:06:08.656Z,5.67
2017-11-26T05:07:10.527Z,5.58
2017-11-26T05:08:12.342Z,5.51
2017-11-26T05:09:14.181Z,5.48
2017-11-26T05:10:16.036Z,5.54
2017-11-26T05:11:17.913Z,5.42
2017-11-26T05:12:20.401Z,5.30
2017-11-26T05:13:34.751Z,5.24
2017-11-26T05:14:36.629Z,5.30
2017-11-26T05:15:38.503Z,5.24
2017-11-26T05:16:40.381Z,5.06
2017-11-26T05:17:42.194Z,5.02
2017-11-26T05:18:44.007Z,4.96
2017-11-26T05:19:45.891Z,4.91
2017-11-26T05:20:47.761Z,4.96
2017-11-26T05:21:49.639Z,4.99
2017-11-26T05:23:03.786Z,5.00
2017-11-26T05:24:05.663Z,4.82
2017-11-26T05:25:07.540Z,4.89
2017-11-26T05:26:09.419Z,4.89
2017-11-26T05:27:11.236Z,4.94
2017-11-26T05:28:13.048Z,4.94
2017-11-26T05:29:14.931Z,4.96
2017-11-26T05:30:16.807Z,5.04
2017-11-26T05:31:18.687Z,5.02
2017-11-26T05:32:32.882Z,5.22
2017-11-26T05:33:34.758Z,5.28
2017-11-26T05:34:36.636Z,5.24
2017-11-26T05:35:38.515Z,5.18
2017-11-26T05:36:40.332Z,5.10
2017-11-26T05:37:42.142Z,5.09
2017-11-26T05:38:44.024Z,5.06
2017-11-26T05:39:45.904Z,4.99
2017-11-26T05:40:47.783Z,4.91
2017-11-26T05:42:01.986Z,4.84
2017-11-26T05:43:03.858Z,4.69
2017-11-26T05:44:05.736Z,4.80
2017-11-26T05:45:07.614Z,4.78
2017-11-26T05:46:09.429Z,4.78
2017-11-26T05:47:11.254Z,4.85
2017-11-26T05:48:13.070Z,4.69
2017-11-26T05:49:14.947Z,4.72
2017-11-26T05:50:16.826Z,4.59
2017-11-26T05:51:31.024Z,4.54
2017-11-26T05:52:32.901Z,4.55
2017-11-26T05:53:34.779Z,4.69
2017-11-26T05:54:36.657Z,4.59
2017-11-26T05:55:38.472Z,4.58
2017-11-26T05:56:40.284Z,4.52
2017-11-26T05:57:42.161Z,4.55
2017-11-26T05:58:44.040Z,4.51
2017-11-26T05:59:45.918Z,4.54
2017-11-26T06:01:00.112Z,4.59
2017-11-26T06:02:01.989Z,4.52
2017-11-26T06:03:03.865Z,4.54
2017-11-26T06:04:05.744Z,4.62
2017-11-26T06:05:07.556Z,4.60
2017-11-26T06:06:09.372Z,4.63
2017-11-26T06:07:11.251Z,4.60
2017-11-26T06:08:13.127Z,4.54
2017-11-26T06:09:15.009Z,4.36
2017-11-26T06:10:29.159Z,4.42
2017-11-26T06:11:31.035Z,4.44
2017-11-26T06:12:32.914Z,4.45
2017-11-26T06:13:34.793Z,4.44
2017-11-26T06:14:36.611Z,4.51
2017-11-26T06:15:38.422Z,4.60
2017-11-26T06:16:40.307Z,4.66
2017-11-26T06:17:42.185Z,4.73
2017-11-26T06:18:44.059Z,4.77
2017-11-26T06:19:58.209Z,4.84
2017-11-26T06:21:00.085Z,4.82
2017-11-26T06:22:01.964Z,4.86
2017-11-26T06:23:03.846Z,4.82
2017-11-26T06:24:05.659Z,4.99
2017-11-26T06:25:07.476Z,4.99
2017-11-26T06:26:09.353Z,5.03
2017-11-26T06:27:11.232Z,5.02
2017-11-26T06:28:13.113Z,5.15
2017-11-26T06:29:27.263Z,5.17
2017-11-26T06:30:29.145Z,5.10
2017-11-26T06:31:31.021Z,5.24
2017-11-26T06:32:32.903Z,5.25
2017-11-26T06:33:34.718Z,5.09
2017-11-26T06:34:36.534Z,5.17
2017-11-26T06:35:38.414Z,5.09
2017-11-26T06:36:40.293Z,5.21
2017-11-26T06:37:42.176Z,5.12
2017-11-26T06:38:56.328Z,5.18
2017-11-26T06:39:58.205Z,5.04
2017-11-26T06:41:00.088Z,5.07
2017-11-26T06:42:01.973Z,5.02
2017-11-26T06:43:03.788Z,5.00
2017-11-26T06:44:05.602Z,4.91
2017-11-26T06:45:07.484Z,4.86
2017-11-26T06:46:09.367Z,4.80
2017-11-26T06:47:11.246Z,4.67
2017-11-26T06:48:25.396Z,4.72
2017-11-26T06:49:27.282Z,4.62
2017-11-26T06:50:29.156Z,4.58
2017-11-26T06:51:31.037Z,4.51
2017-11-26T06:52:32.850Z,4.42
2017-11-26T06:53:34.668Z,4.40
2017-11-26T06:54:36.546Z,4.42
2017-11-26T06:55:38.426Z,4.47
2017-11-26T06:56:40.309Z,4.41
2017-11-26T06:57:54.460Z,4.59
2017-11-26T06:58:56.341Z,4.62
2017-11-26T06:59:58.219Z,4.63
2017-11-26T07:01:00.102Z,4.75
2017-11-26T07:02:01.920Z,4.75
2017-11-26T07:03:03.735Z,4.82
2017-11-26T07:04:05.619Z,4.80
2017-11-26T07:05:07.499Z,4.88
2017-11-26T07:06:09.379Z,4.86
2017-11-26T07:07:23.532Z,4.94
2017-11-26T07:08:25.412Z,4.96
2017-11-26T07:09:27.292Z,5.02
2017-11-26T07:10:29.180Z,4.99
2017-11-26T07:11:30.997Z,4.99
2017-11-26T07:12:32.814Z,4.94
2017-11-26T07:13:34.696Z,5.13
2017-11-26T07:14:36.578Z,5.06
2017-11-26T07:15:38.458Z,5.02
2017-11-26T07:16:52.612Z,5.10
2017-11-26T07:17:54.488Z,5.10
2017-11-26T07:18:56.370Z,5.09
2017-11-26T07:19:58.260Z,5.10
2017-11-26T07:21:00.073Z,5.13
2017-11-26T07:22:01.891Z,5.18
2017-11-26T07:23:03.773Z,5.17
2017-11-26T07:24:05.656Z,5.17
2017-11-26T07:25:07.538Z,5.10
2017-11-26T07:26:21.693Z,5.07
2017-11-26T07:27:23.571Z,5.06
2017-11-26T07:28:25.453Z,5.17
2017-11-26T07:29:27.336Z,5.00
2017-11-26T07:30:29.154Z,4.84
2017-11-26T07:31:30.972Z,4.91
2017-11-26T07:32:32.852Z,4.80
2017-11-26T07:33:34.739Z,4.69
2017-11-26T07:34:36.621Z,4.65
2017-11-26T07:35:50.774Z,4.51
2017-11-26T07:36:52.655Z,4.50
2017-11-26T07:37:54.537Z,4.59
2017-11-26T07:38:56.423Z,4.55
2017-11-26T07:39:58.241Z,4.65
2017-11-26T07:41:00.057Z,4.77
2017-11-26T07:42:01.944Z,4.88
2017-11-26T07:43:03.826Z,5.00
2017-11-26T07:44:05.710Z,5.02
2017-11-26T07:45:19.860Z,5.03
2017-11-26T07:46:21.739Z,5.12
2017-11-26T07:47:23.621Z,5.07
2017-11-26T07:48:25.504Z,5.15
2017-11-26T07:49:27.322Z,5.12
2017-11-26T07:50:29.141Z,5.13
2017-11-26T07:51:31.040Z,5.24
2017-11-26T07:52:32.924Z,5.24
2017-11-26T07:53:34.808Z,5.30
2017-11-26T07:54:48.961Z,5.36
2017-11-26T07:55:50.844Z,5.45
2017-11-26T07:56:52.720Z,5.39
2017-11-26T07:57:54.607Z,5.49
2017-11-26T07:58:56.427Z,5.56
2017-11-26T07:59:58.259Z,5.58
2017-11-26T08:01:00.146Z,5.60
2017-11-26T08:02:02.052Z,5.58
2017-11-26T08:03:03.988Z,5.65
2017-11-26T08:04:18.229Z,5.67
2017-11-26T08:05:20.153Z,5.61
2017-11-26T08:06:22.059Z,5.63
2017-11-26T08:07:23.976Z,5.65
2017-11-26T08:08:25.799Z,5.61
2017-11-26T08:09:27.651Z,5.58
2017-11-26T08:10:29.535Z,5.67
2017-11-26T08:11:31.427Z,5.72
2017-11-26T08:12:33.324Z,5.71
2017-11-26T08:13:47.541Z,5.68
2017-11-26T08:14:49.445Z,5.76
2017-11-26T08:15:51.380Z,5.76
2017-11-26T08:16:53.289Z,5.68
2017-11-26T08:17:55.134Z,5.78
2017-11-26T08:18:56.987Z,5.75
2017-11-26T08:19:58.914Z,5.74
2017-11-26T08:21:00.819Z,5.68
2017-11-26T08:22:02.756Z,5.60
2017-11-26T08:23:16.969Z,5.71
2017-11-26T08:24:18.851Z,5.74
2017-11-26T08:25:20.737Z,5.72
2017-11-26T08:26:22.631Z,5.76
2017-11-26T08:27:24.449Z,5.74
2017-11-26T08:28:26.278Z,5.67
2017-11-26T08:29:28.154Z,5.72
2017-11-26T08:30:30.032Z,5.61
2017-11-26T08:31:31.942Z,5.60
2017-11-26T08:32:46.098Z,5.63
2017-11-26T08:33:47.977Z,5.58
2017-11-26T08:34:49.909Z,5.63
2017-11-26T08:35:51.768Z,5.64
2017-11-26T08:36:53.587Z,5.71
2017-11-26T08:37:55.405Z,5.63
2017-11-26T08:38:57.288Z,5.63
2017-11-26T08:39:59.172Z,5.68
2017-11-26T08:41:01.052Z,5.75
2017-11-26T08:42:15.215Z,5.72
2017-11-26T08:43:17.434Z,5.82
2017-11-26T08:44:19.323Z,5.75
2017-11-26T08:45:21.206Z,5.64
2017-11-26T08:46:23.029Z,5.78
2017-11-26T08:47:24.845Z,5.68
2017-11-26T08:48:26.727Z,5.76
2017-11-26T08:49:28.611Z,5.58
2017-11-26T08:50:30.491Z,5.72
2017-11-26T08:51:44.650Z,5.64
2017-11-26T08:52:46.526Z,5.60
2017-11-26T08:53:48.406Z,5.58
2017-11-26T08:54:50.300Z,5.60
2017-11-26T08:55:52.128Z,5.71
2017-11-26T08:56:53.941Z,5.76
2017-11-26T08:57:55.852Z,5.64
2017-11-26T08:58:57.729Z,5.57
2017-11-26T08:59:59.659Z,5.58
2017-11-26T09:01:13.830Z,5.56
2017-11-26T09:02:15.725Z,5.51
2017-11-26T09:03:17.607Z,5.49
2017-11-26T09:04:19.491Z,5.51
2017-11-26T09:05:21.310Z,5.57
2017-11-26T09:06:23.128Z,5.65
2017-11-26T09:07:25.017Z,5.71
2017-11-26T09:08:26.895Z,5.74
2017-11-26T09:09:28.782Z,5.78
2017-11-26T09:10:43.094Z,5.82
2017-11-26T09:11:44.984Z,5.86
2017-11-26T09:12:46.872Z,6.01
2017-11-26T09:13:48.770Z,5.97
2017-11-26T09:14:50.578Z,5.99
2017-11-26T09:15:52.412Z,6.01
2017-11-26T09:16:54.231Z,6.03
2017-11-26T09:17:56.113Z,6.14
2017-11-26T09:18:57.995Z,6.15
2017-11-26T09:20:12.148Z,6.18
2017-11-26T09:21:14.032Z,6.14
2017-11-26T09:22:15.908Z,6.21
2017-11-26T09:23:17.793Z,6.37
2017-11-26T09:24:19.614Z,6.44
2017-11-26T09:25:21.433Z,6.46
2017-11-26T09:26:23.314Z,6.55
2017-11-26T09:27:25.207Z,6.48
2017-11-26T09:28:27.093Z,6.61
2017-11-26T09:29:41.306Z,6.73
2017-11-26T09:30:43.183Z,6.81
2017-11-26T09:31:45.063Z,6.81
2017-11-26T09:32:46.946Z,6.80
2017-11-26T09:33:48.796Z,6.97
2017-11-26T09:34:50.615Z,6.97
2017-11-26T09:35:52.499Z,7.12
2017-11-26T09:36:54.730Z,7.13
2017-11-26T09:37:56.637Z,7.23
2017-11-26T09:39:10.937Z,7.16
2017-11-26T09:40:12.815Z,7.24
2017-11-26T09:41:14.699Z,7.15
2017-11-26T09:42:16.577Z,7.15
2017-11-26T09:43:18.402Z,7.24
2017-11-26T09:44:20.230Z,7.28
2017-11-26T09:45:22.114Z,7.28
2017-11-26T09:46:24.011Z,7.37
2017-11-26T09:47:25.881Z,7.53
2017-11-26T09:48:40.034Z,7.52
2017-11-26T09:49:41.923Z,7.57
2017-11-26T09:50:43.805Z,7.57
2017-11-26T09:51:45.702Z,7.50
2017-11-26T09:52:47.522Z,7.60
2017-11-26T09:53:49.350Z,7.61
2017-11-26T09:54:51.234Z,7.60
2017-11-26T09:55:53.113Z,7.67
2017-11-26T09:56:55.001Z,7.64
2017-11-26T09:58:09.194Z,7.80
2017-11-26T09:59:11.088Z,7.83
2017-11-26T10:00:13.293Z,7.83
2017-11-26T10:01:15.193Z,7.86
2017-11-26T10:02:17.093Z,7.79
2017-11-26T10:03:18.892Z,7.77
2017-11-26T10:04:20.899Z,7.82
2017-11-26T10:05:23.116Z,7.87
2017-11-26T10:06:25.031Z,7.97
2017-11-26T10:07:39.606Z,8.11
2017-11-26T10:08:41.520Z,8.15
2017-11-26T10:09:43.397Z,8.20
2017-11-26T10:10:45.317Z,8.20
2017-11-26T10:11:47.664Z,8.28
2017-11-26T10:12:49.610Z,8.25
2017-11-26T10:13:51.497Z,8.26
2017-11-26T10:14:53.415Z,8.29
2017-11-26T10:15:55.421Z,8.28
2017-11-26T10:17:09.694Z,8.25
2017-11-26T10:18:11.583Z,8.36
2017-11-26T10:19:13.458Z,8.28
2017-11-26T10:20:15.342Z,8.38
2017-11-26T10:21:17.167Z,8.37
2017-11-26T10:22:18.987Z,8.37
2017-11-26T10:23:20.914Z,8.41
2017-11-26T10:24:22.817Z,8.37
2017-11-26T10:25:24.748Z,8.30
2017-11-26T10:26:38.894Z,8.25
2017-11-26T10:27:40.776Z,8.08
2017-11-26T10:28:42.666Z,8.11
2017-11-26T10:29:44.617Z,8.07
2017-11-26T10:30:46.472Z,8.02
2017-11-26T10:31:48.294Z,8.04
2017-11-26T10:32:50.204Z,8.01
2017-11-26T10:33:52.511Z,7.89
2017-11-26T10:34:54.527Z,7.86
2017-11-26T10:36:08.718Z,7.85
2017-11-26T10:37:10.603Z,7.83
2017-11-26T10:38:12.489Z,7.85
2017-11-26T10:39:14.373Z,7.89
2017-11-26T10:40:16.195Z,7.86
2017-11-26T10:41:18.018Z,7.89
2017-11-26T10:42:19.900Z,7.93
2017-11-26T10:43:21.790Z,7.87
2017-11-26T10:44:23.685Z,7.97
2017-11-26T10:45:37.829Z,7.89
2017-11-26T10:46:39.719Z,7.87
2017-11-26T10:47:41.611Z,8.01
2017-11-26T10:48:43.478Z,8.07
2017-11-26T10:49:45.297Z,8.10
2017-11-26T10:50:47.118Z,8.12
2017-11-26T10:51:49.048Z,8.18
2017-11-26T10:52:50.976Z,8.18
2017-11-26T10:53:52.862Z,8.12
2017-11-26T10:55:07.035Z,8.22
2017-11-26T10:56:08.919Z,8.29
2017-11-26T10:57:10.803Z,8.34
2017-11-26T10:58:12.687Z,8.41
2017-11-26T10:59:14.513Z,8.41
2017-11-26T11:00:16.338Z,8.45
2017-11-26T11:01:18.222Z,8.40
2017-11-26T11:02:20.129Z,8.47
2017-11-26T11:03:22.005Z,8.47
2017-11-26T11:04:36.159Z,8.52
2017-11-26T11:05:38.049Z,8.48
2017-11-26T11:06:39.934Z,8.45
2017-11-26T11:07:41.819Z,8.43
2017-11-26T11:08:43.643Z,8.48
2017-11-26T11:09:45.464Z,8.48
2017-11-26T11:10:47.354Z,8.52
2017-11-26T11:11:49.242Z,8.59
2017-11-26T11:12:51.095Z,8.58
2017-11-26T11:14:05.297Z,8.58
2017-11-26T11:15:07.185Z,8.66
2017-11-26T11:16:09.073Z,8.65
2017-11-26T11:17:10.966Z,8.73
2017-11-26T11:18:12.792Z,8.65
2017-11-26T11:19:14.611Z,8.66
2017-11-26T11:20:16.494Z,8.62
2017-11-26T11:21:18.385Z,8.73
2017-11-26T11:22:20.276Z,8.73
2017-11-26T11:23:34.429Z,8.71
2017-11-26T11:24:36.316Z,8.66
2017-11-26T11:25:38.228Z,8.65
2017-11-26T11:26:40.091Z,8.59
2017-11-26T11:27:41.916Z,8.61
2017-11-26T11:28:43.745Z,8.59
2017-11-26T11:29:45.628Z,8.52
2017-11-26T11:30:47.514Z,8.53
2017-11-26T11:31:49.413Z,8.58
2017-11-26T11:33:03.610Z,8.43
2017-11-26T11:34:05.494Z,8.50
2017-11-26T11:35:07.378Z,8.50
2017-11-26T11:36:09.290Z,8.48
2017-11-26T11:37:11.116Z,8.50
2017-11-26T11:38:12.940Z,8.47
2017-11-26T11:39:14.829Z,8.45
2017-11-26T11:40:16.720Z,8.48
2017-11-26T11:41:18.604Z,8.48
2017-11-26T11:42:33.104Z,8.47
2017-11-26T11:43:34.974Z,8.50
2017-11-26T11:44:36.867Z,8.55
2017-11-26T11:45:38.752Z,8.47
2017-11-26T11:46:40.571Z,8.56
2017-11-26T11:47:42.406Z,8.52
2017-11-26T11:48:44.604Z,8.47
2017-11-26T11:49:46.500Z,8.44
2017-11-26T11:50:48.729Z,8.34
2017-11-26T11:52:03.243Z,8.23
2017-11-26T11:53:05.425Z,8.30
2017-11-26T11:54:07.328Z,8.15
2017-11-26T11:55:09.535Z,8.18
2017-11-26T11:56:11.662Z,8.22
2017-11-26T11:57:13.514Z,8.10
2017-11-26T11:58:15.812Z,8.00
2017-11-26T11:59:17.736Z,8.05
2017-11-26T12:00:19.644Z,8.02
2017-11-26T12:01:33.798Z,8.00
2017-11-26T12:02:35.712Z,7.90
2017-11-26T12:03:37.602Z,7.95
2017-11-26T12:04:39.510Z,7.90
2017-11-26T12:05:41.651Z,7.87
2017-11-26T12:06:43.480Z,7.89
2017-11-26T12:07:45.386Z,7.93
2017-11-26T12:08:47.279Z,7.95
2017-11-26T12:09:49.169Z,7.82
2017-11-26T12:11:03.343Z,7.89
2017-11-26T12:12:05.242Z,7.90
2017-11-26T12:13:07.126Z,7.95
2017-11-26T12:14:09.354Z,7.93
2017-11-26T12:15:11.491Z,7.86
2017-11-26T12:16:13.656Z,8.00
2017-11-26T12:17:15.560Z,7.85
2017-11-26T12:18:17.444Z,7.98
2017-11-26T12:19:19.366Z,7.97
2017-11-26T12:20:33.877Z,7.95
2017-11-26T12:21:35.842Z,7.92
2017-11-26T12:22:37.743Z,8.00
2017-11-26T12:23:39.953Z,7.97
2017-11-26T12:24:41.748Z,8.02
2017-11-26T12:25:43.600Z,8.05
2017-11-26T12:26:45.519Z,8.10
2017-11-26T12:27:47.433Z,8.20
2017-11-26T12:28:49.314Z,8.18
2017-11-26T12:30:03.809Z,8.22
2017-11-26T12:31:06.024Z,8.22
2017-11-26T12:32:07.926Z,8.26
2017-11-26T12:33:09.813Z,8.15
2017-11-26T12:34:11.979Z,8.34
2017-11-26T12:35:13.759Z,8.28
2017-11-26T12:36:15.973Z,8.34
2017-11-26T12:37:17.821Z,8.33
2017-11-26T12:38:19.707Z,8.38
2017-11-26T12:39:33.872Z,8.41
2017-11-26T12:40:35.758Z,8.41
2017-11-26T12:41:37.641Z,8.43
2017-11-26T12:42:39.528Z,8.40
2017-11-26T12:43:41.350Z,8.44
2017-11-26T12:44:43.172Z,8.55
2017-11-26T12:45:45.060Z,8.52
2017-11-26T12:46:46.950Z,8.63
2017-11-26T12:47:48.839Z,8.59
2017-11-26T12:49:02.996Z,8.66
2017-11-26T12:50:04.897Z,8.61
2017-11-26T12:51:06.772Z,8.70
2017-11-26T12:52:08.666Z,8.70
2017-11-26T12:53:10.494Z,8.81
2017-11-26T12:54:12.317Z,8.83
2017-11-26T12:55:14.200Z,8.84
2017-11-26T12:56:16.096Z,8.92
2017-11-26T12:57:17.979Z,8.98
2017-11-26T12:58:32.133Z,8.95
2017-11-26T12:59:34.021Z,8.98
2017-11-26T13:00:35.907Z,8.98
2017-11-26T13:01:37.802Z,8.86
2017-11-26T13:02:39.623Z,8.77
2017-11-26T13:03:41.440Z,8.65
2017-11-26T13:04:43.328Z,8.66
2017-11-26T13:05:45.217Z,8.52
2017-11-26T13:06:47.109Z,8.58
2017-11-26T13:08:01.258Z,8.52
2017-11-26T13:09:03.143Z,8.52
2017-11-26T13:10:05.028Z,8.40
2017-11-26T13:11:06.914Z,8.36
2017-11-26T13:12:08.769Z,8.26
2017-11-26T13:13:10.589Z,8.26
2017-11-26T13:14:12.477Z,8.22
2017-11-26T13:15:14.364Z,8.33
2017-11-26T13:16:16.248Z,8.36
2017-11-26T13:17:30.407Z,8.30
2017-11-26T13:18:32.288Z,8.34
2017-11-26T13:19:34.172Z,8.38
2017-11-26T13:20:36.057Z,8.37
2017-11-26T13:21:37.878Z,8.40
2017-11-26T13:22:39.709Z,8.40
2017-11-26T13:23:41.592Z,8.41
2017-11-26T13:24:43.477Z,8.37
2017-11-26T13:25:45.363Z,8.37
2017-11-26T13:26:59.568Z,8.36
2017-11-26T13:28:01.453Z,8.40
2017-11-26T13:29:03.341Z,8.43
2017-11-26T13:30:05.228Z,8.29
2017-11-26T13:31:07.048Z,8.44
2017-11-26T13:32:08.870Z,8.30
2017-11-26T13:33:10.759Z,8.47
2017-11-26T13:34:12.603Z,8.55
2017-11-26T13:35:14.422Z,8.47
2017-11-26T13:36:28.581Z,8.48
2017-11-26T13:37:30.462Z,8.47
2017-11-26T13:38:32.343Z,8.38
2017-11-26T13:39:34.230Z,8.37
2017-11-26T13:40:36.053Z,8.28
2017-11-26T13:41:37.875Z,8.33
2017-11-26T13:42:39.752Z,8.23
2017-11-26T13:43:41.637Z,8.19
2017-11-26T13:44:43.519Z,8.08
2017-11-26T13:45:57.676Z,8.07
2017-11-26T13:46:59.558Z,8.01
2017-11-26T13:48:01.440Z,8.00
2017-11-26T13:49:03.325Z,7.95
2017-11-26T13:50:05.148Z,7.93
2017-11-26T13:51:06.966Z,7.95
2017-11-26T13:52:08.851Z,7.95
2017-11-26T13:53:10.735Z,7.90
2017-11-26T13:54:12.618Z,7.90
2017-11-26T13:55:26.773Z,7.82
2017-11-26T13:56:28.652Z,7.89
2017-11-26T13:57:30.538Z,7.97
2017-11-26T13:58:32.420Z,7.83
2017-11-26T13:59:34.241Z,7.97
2017-11-26T14:00:36.059Z,7.86
2017-11-26T14:01:37.944Z,7.83